Estación Meteorológica Peña el Pijo (Robertgarden) [ 07/19/18 09:31:58 CEST ]

Fecha Hora Presion(HPa) Temp (°C) Humedad % Rocio (°C) Viento ( m/s) Direccion Lluvia 1Hora(mm) Lluvia 24H(mm) LLuvia Total(mm)
2017-Dec-29 01:01:36 1007.500 10.6 77 6.7         27.97
2017-Dec-29 02:03:10 1007.900 10.5 76 6.4         27.97
2017-Dec-29 03:01:34 1008.600 9.4 80 6.1         27.97
2017-Dec-29 04:01:37 1008.700 9.3 81 6.2         27.97
2017-Dec-29 05:02:04 1008.800 9.3 81 6.2         27.97
2017-Dec-29 06:01:46 1008.700 8.9 82 6.0         27.97
2017-Dec-29 07:01:54 1009.700 8.8 83 6.0         27.97
2017-Dec-29 08:01:58 1010.100 8.3 84 5.8         27.97
2017-Dec-29 09:01:51 1010.400 9.0 84 6.4         27.97
2017-Dec-29 10:01:46 1010.800 9.3 84 6.7         27.97
2017-Dec-29 11:01:54 1011.600 10.5 82 7.5         27.97
2017-Dec-29 12:01:50 1012.300 12.2 79 8.7 0.5 WNW     27.97
2017-Dec-29 13:01:47 1011.800 13.1 68 7.3 5.6 NNW     27.97
2017-Dec-29 14:01:47 1012.100 13.5 67 7.5 1.5 N     27.97
2017-Dec-29 15:01:54 1012.100 12.8 68 7.0         27.97
2017-Dec-29 16:01:29 1012.800 12.0 71 6.9         27.97
2017-Dec-29 17:01:58 1013.400 11.5 73 6.8         27.97
2017-Dec-29 18:01:50 1013.800 10.9 75 6.6         27.97
2017-Dec-29 19:01:55 1014.900 10.7 77 6.8         27.97
2017-Dec-29 20:01:52 1015.500 10.1 77 6.2         27.97
2017-Dec-29 21:01:43 1016.200 9.7 79 6.2         27.97
2017-Dec-29 22:01:47 1016.500 9.6 80 6.3         27.97
2017-Dec-29 23:01:55 1016.900 9.4 81 6.3         27.97

Temperatura Máxima:13°    Temperatura Mínima:
Presión Máxima:1016.900 Hpa    Presión Mínima:1007.500 Hpa


Volver